Time;durP1;ratioP1;P1;durP2;ratioP2;P2;SDS_P1;SDS_P2;PMS_P1;PMS_P2;Temp;Humidity;BMP_temperature;BMP_pressure;BME280_temperature;BME280_humidity;BME280_pressure;Samples;Min_cycle;Max_cycle;Signal;HPM_P1;HPM_P2
2022/02/06 00:02:27;;;;;;;12.55;2.80;;;10.50;96.80;;;;;;5024884;28;20103;-58
2022/02/06 00:04:54;;;;;;;8.70;1.95;;;10.50;96.90;;;;;;5044049;28;20087;-58
2022/02/06 00:07:21;;;;;;;11.30;2.42;;;10.50;97.10;;;;;;4684743;28;10000500;-59
2022/02/06 00:09:48;;;;;;;12.18;1.83;;;10.50;96.90;;;;;;5015089;28;20053;-58
2022/02/06 00:12:31;;;;;;;10.27;1.80;;;10.50;96.90;;;;;;5042250;28;20119;-57
2022/02/06 00:14:58;;;;;;;13.10;2.25;;;10.50;97.10;;;;;;5047154;28;20104;-57
2022/02/06 00:17:28;;;;;;;12.13;1.98;;;10.50;97.00;;;;;;5038765;28;20045;-58
2022/02/06 00:19:55;;;;;;;12.45;2.42;;;10.50;97.10;;;;;;5041725;28;20495;-57
2022/02/06 00:22:45;;;;;;;13.57;2.15;;;10.50;97.10;;;;;;5041141;28;20041;-56
2022/02/06 00:25:29;;;;;;;14.35;1.98;;;10.50;97.00;;;;;;5042964;28;20049;-56
2022/02/06 00:28:11;;;;;;;;;;;10.50;97.20;;;;;;5044846;28;20044;-58
2022/02/06 00:30:45;;;;;;;14.43;3.15;;;10.50;97.10;;;;;;5039747;28;19964;-57
2022/02/06 00:33:25;;;;;;;15.55;2.10;;;10.50;97.00;;;;;;5037113;28;20080;-56
2022/02/06 00:38:34;;;;;;;14.77;2.42;;;10.50;97.20;;;;;;5040289;28;20045;-59
2022/02/06 00:43:31;;;;;;;5.00;1.98;;;10.40;97.20;;;;;;5039593;28;20079;-59
2022/02/06 00:45:58;;;;;;;16.38;2.53;;;10.40;97.30;;;;;;5030008;28;20268;-58
2022/02/06 00:48:27;;;;;;;12.80;1.83;;;10.40;97.20;;;;;;5038726;28;20053;-59
2022/02/06 00:51:05;;;;;;;11.82;2.72;;;10.40;97.20;;;;;;5038607;28;20094;-58
2022/02/06 00:53:32;;;;;;;13.25;1.83;;;10.40;97.20;;;;;;5021251;28;20389;-57
2022/02/06 00:56:00;;;;;;;14.30;2.17;;;10.40;97.50;;;;;;5046574;28;20099;-58
2022/02/06 00:58:27;;;;;;;9.68;1.52;;;10.40;97.30;;;;;;5040950;28;20497;-58
2022/02/06 01:00:54;;;;;;;8.05;1.52;;;10.40;97.20;;;;;;5039144;28;20045;-58
2022/02/06 01:03:21;;;;;;;10.25;2.10;;;10.40;97.20;;;;;;5046358;28;20092;-58
2022/02/06 01:06:02;;;;;;;7.78;1.27;;;10.50;97.10;;;;;;5042993;28;20079;-58
2022/02/06 01:08:29;;;;;;;8.02;1.95;;;10.50;96.90;;;;;;5047500;28;20127;-59
2022/02/06 01:10:56;;;;;;;10.15;3.25;;;10.50;97.10;;;;;;5038284;28;20053;-59
2022/02/06 01:13:43;;;;;;;11.02;1.25;;;10.40;97.10;;;;;;5040146;28;20136;-59
2022/02/06 01:16:25;;;;;;;10.73;1.48;;;10.40;97.30;;;;;;5040400;28;20496;-59
2022/02/06 01:18:58;;;;;;;6.30;1.35;;;10.40;97.60;;;;;;5033577;28;20049;-57
2022/02/06 01:24:22;;;;;;;15.30;2.58;;;10.30;97.60;;;;;;5041690;28;20511;-59
2022/02/06 01:26:58;;;;;;;7.35;1.55;;;10.30;97.90;;;;;;5040817;28;20073;-59
2022/02/06 01:29:53;;;;;;;11.13;1.60;;;10.30;98.10;;;;;;5044841;28;20048;-59
2022/02/06 01:32:19;;;;;;;4.72;1.42;;;10.20;98.70;;;;;;5045859;28;20068;-59
2022/02/06 01:35:06;;;;;;;12.18;1.45;;;10.20;99.00;;;;;;5047320;28;20146;-59
2022/02/06 01:37:50;;;;;;;10.43;2.38;;;10.10;99.30;;;;;;5044923;28;20084;-59
2022/02/06 01:40:31;;;;;;;;;;;10.00;99.50;;;;;;5041130;28;20091;-58
2022/02/06 01:43:03;;;;;;;11.15;1.58;;;9.90;99.90;;;;;;5040023;28;20066;-58
2022/02/06 02:04:48;;;;;;;9.05;2.05;;;9.60;99.90;;;;;;5041192;28;20068;-58
2022/02/06 02:47:36;;;;;;;14.95;2.25;;;9.20;99.90;;;;;;5042980;28;20045;-58
2022/02/06 02:50:10;;;;;;;16.27;2.00;;;9.20;99.90;;;;;;5038151;28;20084;-58
2022/02/06 03:03:22;;;;;;;12.77;2.33;;;9.30;99.90;;;;;;5041732;28;20124;-58
2022/02/06 03:05:51;;;;;;;8.75;1.95;;;9.40;99.90;;;;;;5043913;28;20411;-58
2022/02/06 03:08:20;;;;;;;11.05;2.85;;;9.40;99.90;;;;;;5038880;28;20124;-60
2022/02/06 03:10:50;;;;;;;8.48;1.95;;;9.40;99.90;;;;;;5043539;28;20053;-58
2022/02/06 03:13:19;;;;;;;11.88;1.50;;;9.50;99.90;;;;;;5044497;28;20080;-57
2022/02/06 03:18:29;;;;;;;7.03;1.42;;;9.50;99.90;;;;;;5036866;28;20508;-60
2022/02/06 03:20:59;;;;;;;3.60;0.80;;;9.60;99.90;;;;;;5036534;28;20053;-57
2022/02/06 03:23:27;;;;;;;9.98;1.52;;;9.60;99.90;;;;;;5044815;28;20067;-58
2022/02/06 03:25:54;;;;;;;5.07;1.17;;;9.70;99.90;;;;;;5042816;28;20084;-57
2022/02/06 03:28:24;;;;;;;5.47;1.45;;;9.70;99.90;;;;;;5045266;28;20615;-58
2022/02/06 03:30:52;;;;;;;5.70;1.20;;;9.70;99.90;;;;;;5038879;28;20267;-58
2022/02/06 03:33:19;;;;;;;12.63;2.10;;;9.70;99.90;;;;;;5035186;28;20124;-59
2022/02/06 03:35:46;;;;;;;9.48;1.63;;;9.60;99.90;;;;;;5023956;28;20084;-57
2022/02/06 03:38:13;;;;;;;6.18;1.30;;;9.70;99.90;;;;;;5045555;28;20049;-57
2022/02/06 03:40:47;;;;;;;8.80;1.65;;;9.80;99.90;;;;;;5041781;28;20057;-58
2022/02/06 03:43:22;;;;;;;10.52;1.60;;;9.80;99.90;;;;;;5026945;28;20041;-58
2022/02/06 03:46:06;;;;;;;7.50;2.00;;;9.80;99.90;;;;;;5040850;28;20045;-56
2022/02/06 03:48:44;;;;;;;9.98;1.98;;;9.90;99.90;;;;;;5035646;28;20102;-58
2022/02/06 03:51:19;;;;;;;12.02;1.45;;;9.90;99.90;;;;;;5033008;28;20166;-56
2022/02/06 03:53:51;;;;;;;6.07;1.25;;;9.90;99.90;;;;;;5041887;28;20087;-57
2022/02/06 03:56:20;;;;;;;8.00;1.52;;;10.00;99.90;;;;;;5041882;28;20080;-56
2022/02/06 03:58:46;;;;;;;7.63;1.55;;;10.00;99.90;;;;;;5035147;28;20081;-56
2022/02/06 04:01:13;;;;;;;6.80;1.25;;;10.00;99.90;;;;;;5035345;28;20552;-57
2022/02/06 04:03:40;;;;;;;6.70;1.48;;;10.00;99.90;;;;;;5028111;28;20156;-56
2022/02/06 04:06:07;;;;;;;11.10;1.40;;;10.00;99.90;;;;;;5016419;28;20077;-56
2022/02/06 04:08:36;;;;;;;10.23;1.48;;;10.00;99.90;;;;;;5038971;28;20452;-56
2022/02/06 04:11:07;;;;;;;13.43;1.88;;;10.00;99.90;;;;;;5031017;28;20048;-57
2022/02/06 04:13:39;;;;;;;11.82;1.38;;;10.10;99.90;;;;;;5032090;28;20596;-56
2022/02/06 04:16:13;;;;;;;11.90;1.73;;;10.10;99.90;;;;;;5035821;28;20049;-57
2022/02/06 04:18:52;;;;;;;6.63;1.30;;;10.10;99.90;;;;;;5040130;28;20041;-57
2022/02/06 04:21:19;;;;;;;7.28;1.65;;;10.10;99.90;;;;;;5034763;28;20168;-56
2022/02/06 04:23:45;;;;;;;6.55;1.85;;;10.10;99.90;;;;;;5041741;28;20099;-57
2022/02/06 04:26:12;;;;;;;9.80;1.50;;;10.00;99.90;;;;;;5044746;28;20099;-57
2022/02/06 04:28:39;;;;;;;5.75;1.50;;;10.00;99.90;;;;;;5039960;28;20117;-57
2022/02/06 04:31:06;;;;;;;11.93;1.20;;;10.00;99.90;;;;;;5045196;28;20094;-55
2022/02/06 04:33:32;;;;;;;6.45;1.85;;;10.00;99.90;;;;;;5034953;28;20068;-57
2022/02/06 04:36:02;;;;;;;5.78;1.13;;;10.00;99.90;;;;;;5035588;28;20507;-56
2022/02/06 04:38:43;;;;;;;7.55;1.23;;;10.10;99.90;;;;;;5046134;28;20080;-56
2022/02/06 04:52:19;;;;;;;9.77;1.25;;;10.10;99.90;;;;;;5048866;28;20453;-58
2022/02/06 05:20:05;;;;;;;7.95;1.27;;;10.30;99.90;;;;;;5043267;28;20460;-57
2022/02/06 05:32:12;;;;;;;8.68;1.88;;;10.30;99.90;;;;;;5047467;28;20080;-58
2022/02/06 05:34:38;;;;;;;;;;;10.30;99.90;;;;;;5042980;28;20072;-57
2022/02/06 05:37:05;;;;;;;8.07;1.45;;;10.20;99.90;;;;;;5028800;28;19968;-57
2022/02/06 05:39:32;;;;;;;8.77;1.20;;;10.30;99.90;;;;;;5043296;28;20427;-58
2022/02/06 05:41:59;;;;;;;7.82;1.70;;;10.30;99.90;;;;;;5046667;28;20083;-57
2022/02/06 05:44:25;;;;;;;5.15;0.98;;;10.30;99.90;;;;;;5036114;28;20041;-57
2022/02/06 05:46:52;;;;;;;4.18;0.90;;;10.40;99.90;;;;;;5041997;28;20095;-58
2022/02/06 05:49:19;;;;;;;4.18;1.30;;;10.40;99.90;;;;;;5031751;28;20484;-57
2022/02/06 05:51:47;;;;;;;5.10;1.05;;;10.30;99.90;;;;;;5031754;28;20075;-57
2022/02/06 05:54:14;;;;;;;7.63;1.40;;;10.40;99.90;;;;;;5025300;28;20045;-58
2022/02/06 05:56:41;;;;;;;7.30;1.30;;;10.40;99.90;;;;;;5021694;28;20626;-56
2022/02/06 05:59:08;;;;;;;9.80;1.70;;;10.40;99.90;;;;;;5037898;28;20098;-57
2022/02/06 06:01:35;;;;;;;3.15;0.90;;;10.40;99.90;;;;;;5041598;28;20041;-58
2022/02/06 06:04:03;;;;;;;11.80;1.67;;;10.40;99.90;;;;;;5038150;28;20041;-58
2022/02/06 06:06:31;;;;;;;7.57;2.78;;;10.40;99.90;;;;;;5043634;28;20041;-58
2022/02/06 06:08:58;;;;;;;4.43;1.25;;;10.40;99.90;;;;;;5040284;28;20042;-58
2022/02/06 06:11:26;;;;;;;7.00;1.10;;;10.30;99.90;;;;;;5036980;28;20057;-56
2022/02/06 06:13:53;;;;;;;5.10;1.27;;;10.30;99.90;;;;;;5041529;28;20042;-58
2022/02/06 06:16:20;;;;;;;5.40;0.93;;;10.30;99.90;;;;;;5039778;28;20527;-58
2022/02/06 06:18:47;;;;;;;5.10;1.00;;;10.20;99.90;;;;;;5036551;28;20073;-57
2022/02/06 06:21:14;;;;;;;4.78;1.30;;;10.20;99.90;;;;;;5033761;28;20089;-57
2022/02/06 06:23:43;;;;;;;5.25;0.85;;;10.20;99.90;;;;;;5039242;28;20084;-57
2022/02/06 06:26:15;;;;;;;6.80;2.92;;;10.20;99.90;;;;;;5043206;28;20065;-58
2022/02/06 06:28:42;;;;;;;4.63;0.82;;;10.20;99.90;;;;;;5004950;28;20085;-58
2022/02/06 06:31:10;;;;;;;6.18;0.93;;;10.20;99.90;;;;;;5037762;28;20045;-58
2022/02/06 06:33:36;;;;;;;3.92;1.23;;;10.20;99.90;;;;;;5036763;28;20076;-56
2022/02/06 06:36:04;;;;;;;8.50;1.27;;;10.20;99.90;;;;;;5043160;28;20075;-55
2022/02/06 06:38:33;;;;;;;3.95;0.98;;;10.10;99.90;;;;;;5032156;28;20041;-58
2022/02/06 06:41:00;;;;;;;5.55;1.30;;;10.10;99.90;;;;;;5040118;28;20508;-56
2022/02/06 06:43:27;;;;;;;8.38;1.00;;;10.00;99.90;;;;;;5036001;28;20068;-56
2022/02/06 06:45:54;;;;;;;2.00;0.98;;;10.10;99.90;;;;;;5039567;28;20049;-57
2022/02/06 06:48:21;;;;;;;4.13;1.10;;;10.10;99.90;;;;;;5036215;28;20076;-56
2022/02/06 06:50:48;;;;;;;4.65;1.05;;;10.10;99.90;;;;;;5028690;28;20099;-58
2022/02/06 06:53:15;;;;;;;8.73;1.33;;;10.10;99.90;;;;;;5011194;28;20625;-57
2022/02/06 06:55:44;;;;;;;11.95;3.63;;;10.10;99.90;;;;;;5011579;28;20107;-57
2022/02/06 07:00:56;;;;;;;6.80;0.90;;;10.10;99.90;;;;;;5035998;28;20052;-56
2022/02/06 07:03:23;;;;;;;8.98;0.93;;;10.10;99.90;;;;;;5013509;28;20443;-57
2022/02/06 07:05:50;;;;;;;3.70;0.85;;;10.20;99.90;;;;;;5036466;28;20088;-57
2022/02/06 07:08:17;;;;;;;1.60;0.88;;;10.10;99.90;;;;;;5039532;28;20065;-57
2022/02/06 07:10:44;;;;;;;5.10;1.13;;;10.10;99.90;;;;;;5035161;28;20130;-62
2022/02/06 07:13:13;;;;;;;7.13;1.52;;;10.10;99.90;;;;;;5033901;28;20072;-56
2022/02/06 07:15:40;;;;;;;2.75;0.77;;;10.10;99.90;;;;;;5045964;28;20079;-56
2022/02/06 07:18:07;;;;;;;6.80;1.38;;;10.10;99.90;;;;;;5014082;28;20053;-58
2022/02/06 07:20:36;;;;;;;3.42;0.95;;;10.10;99.90;;;;;;5022256;28;20048;-56
2022/02/06 07:23:03;;;;;;;4.65;0.95;;;10.10;99.90;;;;;;5022982;28;20052;-57
2022/02/06 07:25:30;;;;;;;4.20;1.08;;;10.10;99.90;;;;;;5017230;28;20049;-57
2022/02/06 07:27:57;;;;;;;4.43;1.27;;;10.10;99.90;;;;;;5038024;28;20071;-56
2022/02/06 07:30:24;;;;;;;2.72;1.25;;;10.20;99.90;;;;;;5041889;28;20073;-57
2022/02/06 07:32:50;;;;;;;2.70;1.02;;;10.20;99.90;;;;;;5035901;28;20086;-58
2022/02/06 07:35:17;;;;;;;2.75;1.08;;;10.20;99.90;;;;;;5025309;28;20107;-57
2022/02/06 07:37:47;;;;;;;4.82;1.05;;;10.20;99.90;;;;;;5040682;28;20157;-57
2022/02/06 07:40:14;;;;;;;4.10;1.70;;;10.20;99.90;;;;;;5040002;28;20045;-57
2022/02/06 07:42:41;;;;;;;5.78;1.23;;;10.20;99.90;;;;;;5034149;28;20052;-57
2022/02/06 07:45:10;;;;;;;5.72;1.05;;;10.20;99.90;;;;;;5036562;28;20076;-58
2022/02/06 07:47:39;;;;;;;2.95;0.75;;;10.30;99.90;;;;;;5039179;28;20102;-58
2022/02/06 07:50:08;;;;;;;5.72;0.93;;;10.30;99.90;;;;;;5034851;28;20496;-57
2022/02/06 07:52:34;;;;;;;8.20;1.45;;;10.30;99.90;;;;;;5035224;28;20087;-58
2022/02/06 07:55:03;;;;;;;3.03;0.75;;;10.30;99.90;;;;;;5039197;28;20053;-58
2022/02/06 07:57:30;;;;;;;6.90;1.10;;;10.40;99.90;;;;;;5041048;28;20075;-59
2022/02/06 07:59:57;;;;;;;3.38;1.15;;;10.40;99.90;;;;;;5035623;28;20164;-57
2022/02/06 08:02:24;;;;;;;2.08;0.63;;;10.50;99.90;;;;;;5033356;28;20172;-58
2022/02/06 08:04:51;;;;;;;6.60;1.15;;;10.50;99.90;;;;;;5036124;28;20069;-58
2022/02/06 08:07:18;;;;;;;3.88;0.95;;;10.50;99.90;;;;;;5044568;28;20084;-56
2022/02/06 08:09:59;;;;;;;4.28;1.10;;;10.40;99.90;;;;;;5032737;28;20068;-56
2022/02/06 08:12:28;;;;;;;11.85;1.30;;;10.30;99.90;;;;;;5045275;28;20080;-56
2022/02/06 08:14:56;;;;;;;4.13;1.38;;;10.20;99.90;;;;;;5033961;28;20072;-57
2022/02/06 08:17:26;;;;;;;7.68;1.15;;;10.20;99.90;;;;;;5048221;28;20060;-56
2022/02/06 08:19:53;;;;;;;4.88;1.20;;;10.10;99.90;;;;;;5038857;28;20045;-57
2022/02/06 08:22:20;;;;;;;4.55;1.13;;;10.00;99.90;;;;;;5042910;28;20091;-54
2022/02/06 08:24:47;;;;;;;2.50;0.80;;;10.00;99.90;;;;;;5038305;28;20072;-58
2022/02/06 08:27:14;;;;;;;5.55;1.90;;;10.00;99.90;;;;;;4688149;28;9999991;-57
2022/02/06 08:29:44;;;;;;;6.28;1.00;;;10.00;99.90;;;;;;5035947;28;20461;-57
2022/02/06 08:32:11;;;;;;;5.15;1.80;;;10.00;99.90;;;;;;5039520;28;20129;-56
2022/02/06 08:34:39;;;;;;;4.15;1.13;;;10.10;99.90;;;;;;5032210;28;20037;-56
2022/02/06 08:37:06;;;;;;;4.20;0.90;;;10.10;99.90;;;;;;5038253;28;20107;-58
2022/02/06 08:39:34;;;;;;;8.15;1.50;;;10.10;99.90;;;;;;5038117;28;20050;-58
2022/02/06 08:42:01;;;;;;;2.38;1.00;;;10.10;99.90;;;;;;5036348;28;20056;-57
2022/02/06 08:44:28;;;;;;;7.65;1.23;;;10.20;99.90;;;;;;5032878;28;20145;-56
2022/02/06 08:46:55;;;;;;;11.30;1.30;;;10.20;99.90;;;;;;5033178;28;20045;-57
2022/02/06 08:49:23;;;;;;;11.70;1.20;;;10.30;99.90;;;;;;5035771;28;20135;-58
2022/02/06 08:51:51;;;;;;;6.15;1.00;;;10.20;99.90;;;;;;5034842;28;20163;-58
2022/02/06 08:54:18;;;;;;;4.95;1.00;;;10.20;99.90;;;;;;5040966;28;20084;-57
2022/02/06 08:57:13;;;;;;;5.30;1.10;;;10.20;99.90;;;;;;5035540;28;20059;-57
2022/02/06 08:59:40;;;;;;;7.18;1.40;;;10.20;99.90;;;;;;5038131;28;20470;-57
2022/02/06 09:02:07;;;;;;;7.97;1.10;;;10.20;99.90;;;;;;5016517;28;20190;-56
2022/02/06 09:04:34;;;;;;;9.65;1.73;;;10.30;99.90;;;;;;5029769;28;20162;-57
2022/02/06 09:07:02;;;;;;;4.88;0.95;;;10.30;99.90;;;;;;5036704;28;20159;-58
2022/02/06 09:09:29;;;;;;;9.25;1.67;;;10.30;99.90;;;;;;5038354;28;20105;-58
2022/02/06 09:11:56;;;;;;;3.10;0.90;;;10.40;99.90;;;;;;5037656;28;20132;-57
2022/02/06 09:14:24;;;;;;;6.72;1.27;;;10.40;99.90;;;;;;5039113;28;20126;-57
2022/02/06 09:16:51;;;;;;;3.53;1.08;;;10.40;99.90;;;;;;5030574;28;20053;-57
2022/02/06 09:19:18;;;;;;;6.47;1.88;;;10.30;99.90;;;;;;5044127;28;20048;-59
2022/02/06 09:21:45;;;;;;;3.58;1.25;;;10.30;99.90;;;;;;5040354;28;20114;-60
2022/02/06 09:24:12;;;;;;;6.60;2.00;;;10.30;99.90;;;;;;5028049;28;20760;-57
2022/02/06 09:26:39;;;;;;;4.10;2.25;;;10.40;99.90;;;;;;5032936;28;20083;-59
2022/02/06 09:29:06;;;;;;;6.55;1.30;;;10.40;99.40;;;;;;5038478;28;20072;-58
2022/02/06 09:31:33;;;;;;;4.10;1.10;;;10.50;99.30;;;;;;5037883;28;20122;-59
2022/02/06 09:36:27;;;;;;;7.07;1.33;;;10.50;99.30;;;;;;5029706;28;20079;-60
2022/02/06 09:38:54;;;;;;;5.10;1.40;;;10.50;98.90;;;;;;5033535;28;20103;-59
2022/02/06 09:41:21;;;;;;;3.92;1.23;;;10.50;98.80;;;;;;5035904;28;20087;-59
2022/02/06 09:43:48;;;;;;;2.60;0.80;;;10.50;98.80;;;;;;5033862;28;20084;-59
2022/02/06 09:46:20;;;;;;;3.47;0.80;;;10.50;98.90;;;;;;5042624;28;20135;-57
2022/02/06 09:48:48;;;;;;;8.50;1.60;;;10.50;98.50;;;;;;5041436;28;20069;-58
2022/02/06 09:51:15;;;;;;;3.00;0.80;;;10.40;98.60;;;;;;5035370;28;20732;-58
2022/02/06 09:53:41;;;;;;;2.00;0.60;;;10.40;98.60;;;;;;5022585;28;20151;-60
2022/02/06 09:56:11;;;;;;;2.97;0.82;;;10.40;99.20;;;;;;5029111;28;20053;-57
2022/02/06 10:01:16;;;;;;;2.63;0.77;;;10.30;98.90;;;;;;5032732;28;20141;-59
2022/02/06 10:03:46;;;;;;;7.65;0.90;;;10.20;99.20;;;;;;5036821;28;20081;-59
2022/02/06 10:06:23;;;;;;;2.15;0.68;;;10.10;99.40;;;;;;5038712;28;20313;-59
2022/02/06 10:08:55;;;;;;;6.28;0.95;;;10.00;99.70;;;;;;5033585;28;20127;-61
2022/02/06 10:11:23;;;;;;;1.98;0.60;;;10.10;99.40;;;;;;5016717;28;20128;-59
2022/02/06 10:13:52;;;;;;;2.22;0.90;;;10.10;98.70;;;;;;5019322;28;20099;-60
2022/02/06 10:16:19;;;;;;;4.68;0.57;;;10.20;98.60;;;;;;5034449;28;20127;-58
2022/02/06 10:18:46;;;;;;;1.77;0.60;;;10.30;98.10;;;;;;5015367;28;20052;-59
2022/02/06 10:21:16;;;;;;;1.35;0.80;;;10.40;98.00;;;;;;5033849;28;20049;-58
2022/02/06 10:23:56;;;;;;;0.38;0.35;;;10.40;95.60;;;;;;5020390;28;20528;-59
2022/02/06 10:26:27;;;;;;;1.38;0.35;;;10.40;95.60;;;;;;5037438;28;20045;-58
2022/02/06 10:29:22;;;;;;;0.70;0.40;;;10.40;93.90;;;;;;5036270;28;20122;-58
2022/02/06 10:31:56;;;;;;;1.67;0.47;;;10.30;93.30;;;;;;5032111;28;20061;-57
2022/02/06 10:34:30;;;;;;;0.32;0.30;;;10.40;94.20;;;;;;5036048;28;20128;-56
2022/02/06 10:37:13;;;;;;;0.75;0.35;;;10.30;92.80;;;;;;5033727;28;20096;-61
2022/02/06 10:40:00;;;;;;;0.55;0.20;;;10.30;93.30;;;;;;5032996;28;20084;-58
2022/02/06 10:42:28;;;;;;;0.40;0.40;;;10.30;92.60;;;;;;5022567;28;20081;-59
2022/02/06 10:45:14;;;;;;;2.97;0.30;;;10.40;93.00;;;;;;5019039;28;20080;-59
2022/02/06 10:47:41;;;;;;;0.20;0.20;;;10.40;92.00;;;;;;5029720;28;20080;-59
2022/02/06 10:50:10;;;;;;;1.80;0.40;;;10.40;93.30;;;;;;5036041;28;20077;-60
2022/02/06 10:52:37;;;;;;;2.08;0.40;;;10.40;93.00;;;;;;5020778;28;20136;-59
2022/02/06 10:55:04;;;;;;;3.40;0.50;;;10.40;93.30;;;;;;5036486;28;20075;-60
2022/02/06 10:57:31;;;;;;;0.95;0.70;;;10.40;92.80;;;;;;5031553;28;20159;-59
2022/02/06 10:59:58;;;;;;;0.80;0.38;;;10.40;92.80;;;;;;5034584;28;20519;-60
2022/02/06 11:02:27;;;;;;;1.00;0.35;;;10.40;92.60;;;;;;5041597;28;20110;-59
2022/02/06 11:04:56;;;;;;;2.15;0.50;;;10.40;93.00;;;;;;5034537;28;20060;-60
2022/02/06 11:07:23;;;;;;;1.25;0.50;;;10.40;92.90;;;;;;5015326;28;20459;-59
2022/02/06 11:09:49;;;;;;;0.75;0.28;;;10.40;92.60;;;;;;5033918;28;20042;-59
2022/02/06 11:12:21;;;;;;;0.70;0.20;;;10.40;91.90;;;;;;5017698;28;20118;-58
2022/02/06 11:14:51;;;;;;;2.13;0.57;;;10.40;92.00;;;;;;5029179;28;20076;-59
2022/02/06 11:17:20;;;;;;;0.73;0.45;;;10.40;91.50;;;;;;5026740;28;20053;-59
2022/02/06 11:20:01;;;;;;;1.42;0.30;;;10.50;92.70;;;;;;5029242;28;20080;-58
2022/02/06 11:22:28;;;;;;;0.65;0.52;;;10.50;91.50;;;;;;5040290;28;20115;-59
2022/02/06 11:24:55;;;;;;;10.13;0.80;;;10.50;91.40;;;;;;5039800;28;20060;-59
2022/02/06 11:27:26;;;;;;;2.80;0.65;;;10.50;92.40;;;;;;5028906;28;20118;-59
2022/02/06 11:29:56;;;;;;;0.65;0.40;;;10.50;91.10;;;;;;5028901;28;20697;-60
2022/02/06 11:32:26;;;;;;;1.00;0.40;;;10.60;92.10;;;;;;5008259;28;20436;-59
2022/02/06 11:34:55;;;;;;;3.20;0.57;;;10.50;91.20;;;;;;5029255;28;20080;-58
2022/02/06 11:45:58;;;;;;;0.73;0.38;;;10.70;91.90;;;;;;5038767;28;20076;-59
2022/02/06 11:48:29;;;;;;;0.73;0.40;;;10.60;91.30;;;;;;5023240;28;20049;-59
2022/02/06 11:50:56;;;;;;;4.00;0.47;;;10.60;91.80;;;;;;5020723;28;20544;-59
2022/02/06 11:53:42;;;;;;;0.28;0.22;;;10.70;91.60;;;;;;5008114;28;20053;-60
2022/02/06 11:56:29;;;;;;;2.78;0.60;;;10.60;91.10;;;;;;5034380;28;20087;-59
2022/02/06 11:59:27;;;;;;;1.63;0.30;;;10.60;91.50;;;;;;5030754;28;20149;-60
2022/02/06 12:01:54;;;;;;;3.45;0.55;;;10.50;91.20;;;;;;5007184;28;20464;-60
2022/02/06 12:04:23;;;;;;;4.10;0.63;;;10.70;92.20;;;;;;4991903;28;20079;-60
2022/02/06 12:06:54;;;;;;;1.38;0.47;;;10.70;92.30;;;;;;5031300;28;20053;-59
2022/02/06 12:09:23;;;;;;;14.65;0.73;;;10.70;91.90;;;;;;5027895;28;20411;-59
2022/02/06 12:12:08;;;;;;;8.38;0.68;;;10.70;91.60;;;;;;5009623;28;20055;-59
2022/02/06 12:14:39;;;;;;;3.45;0.60;;;10.60;91.60;;;;;;5010794;28;20152;-60
2022/02/06 12:17:20;;;;;;;4.43;0.50;;;10.70;92.00;;;;;;5029441;28;20136;-60
2022/02/06 12:20:07;;;;;;;7.57;0.82;;;10.50;91.40;;;;;;5034742;28;21008;-60
2022/02/06 12:22:39;;;;;;;3.47;1.13;;;10.50;91.70;;;;;;5040384;28;20586;-59
2022/02/06 12:25:26;;;;;;;3.35;0.80;;;10.60;91.70;;;;;;5030990;28;20076;-60
2022/02/06 12:33:43;;;;;;;6.15;0.85;;;10.70;92.30;;;;;;4951000;28;20157;-66
2022/02/06 12:39:27;;;;;;;3.45;0.80;;;10.60;92.80;;;;;;4971212;28;20074;-68
2022/02/06 12:41:56;;;;;;;3.08;0.73;;;10.60;92.50;;;;;;4967102;28;20113;-65
2022/02/06 12:44:24;;;;;;;6.47;1.38;;;10.60;92.80;;;;;;4969556;28;20077;-66
2022/02/06 12:46:51;;;;;;;5.72;0.90;;;10.70;93.20;;;;;;4974501;28;20061;-66
2022/02/06 12:49:22;;;;;;;7.70;0.88;;;10.70;93.00;;;;;;4961759;28;20047;-65
2022/02/06 12:51:56;;;;;;;10.90;1.23;;;10.80;92.70;;;;;;4967744;28;20058;-66
2022/02/06 12:54:23;;;;;;;6.57;1.08;;;10.80;92.70;;;;;;4962837;28;20054;-65
2022/02/06 12:56:53;;;;;;;10.13;2.88;;;10.90;92.60;;;;;;4965104;28;20089;-64
2022/02/06 12:59:21;;;;;;;3.03;0.88;;;11.00;92.00;;;;;;4973714;28;20481;-67
2022/02/06 13:01:48;;;;;;;5.75;1.10;;;11.10;91.30;;;;;;4968108;28;20113;-66
2022/02/06 13:04:17;;;;;;;5.80;0.90;;;11.10;91.50;;;;;;4967940;28;20287;-66
2022/02/06 13:06:47;;;;;;;9.07;0.90;;;11.10;91.40;;;;;;4968860;28;20082;-66
2022/02/06 13:09:22;;;;;;;6.97;2.13;;;11.10;91.10;;;;;;4966907;28;20055;-65
2022/02/06 13:12:00;;;;;;;5.40;0.98;;;11.00;90.60;;;;;;4974331;28;20070;-65
2022/02/06 13:33:35;;;;;;;22.63;3.33;;;11.40;89.00;;;;;;4977077;28;20517;-66
2022/02/06 13:38:54;;;;;;;12.40;2.45;;;11.30;89.30;;;;;;4976613;28;20566;-66
2022/02/06 13:41:27;;;;;;;8.35;1.42;;;11.30;90.30;;;;;;4961861;28;20943;-66
2022/02/06 13:43:56;;;;;;;10.63;1.70;;;11.30;90.00;;;;;;4966034;28;20465;-65
2022/02/06 13:46:27;;;;;;;10.90;1.95;;;11.40;88.90;;;;;;4977858;28;20051;-66
2022/02/06 13:48:54;;;;;;;8.50;2.20;;;11.40;87.80;;;;;;4973898;28;20088;-66
2022/02/06 13:51:35;;;;;;;8.10;1.25;;;11.50;89.50;;;;;;4966440;28;20125;-67
2022/02/06 13:54:06;;;;;;;8.57;1.10;;;11.50;88.20;;;;;;4953815;28;20046;-62
2022/02/06 13:56:42;;;;;;;5.30;2.35;;;11.40;86.90;;;;;;4966842;28;20070;-66
2022/02/06 13:59:10;;;;;;;9.48;1.30;;;11.40;86.90;;;;;;4967222;28;20123;-65
2022/02/06 14:01:47;;;;;;;5.07;1.23;;;11.50;87.60;;;;;;4966091;28;20775;-67
2022/02/06 14:04:42;;;;;;;11.95;1.55;;;11.50;87.00;;;;;;4966973;28;20134;-66
2022/02/06 14:07:13;;;;;;;3.03;1.00;;;11.50;87.10;;;;;;4962178;28;20075;-66
2022/02/06 14:12:16;;;;;;;7.72;1.55;;;11.50;84.50;;;;;;4966337;28;20399;-67
2022/02/06 14:14:54;;;;;;;11.13;1.23;;;11.50;85.30;;;;;;4968953;28;20054;-66
2022/02/06 14:17:48;;;;;;;5.40;0.85;;;11.50;84.60;;;;;;4963544;28;20058;-67
2022/02/06 14:20:24;;;;;;;6.60;1.73;;;11.50;84.50;;;;;;4965075;28;20482;-67
2022/02/06 14:22:55;;;;;;;11.10;2.25;;;11.50;84.50;;;;;;4964636;28;20043;-68
2022/02/06 14:25:28;;;;;;;7.20;1.02;;;11.40;84.70;;;;;;4964076;28;20050;-67
2022/02/06 14:27:56;;;;;;;3.45;1.35;;;11.40;85.00;;;;;;4967525;28;20195;-67
2022/02/06 14:30:25;;;;;;;1.80;0.95;;;11.50;85.60;;;;;;4967670;28;20074;-68
2022/02/06 14:33:06;;;;;;;9.13;1.80;;;11.40;84.00;;;;;;4963310;28;20062;-68
2022/02/06 14:35:54;;;;;;;10.40;1.45;;;11.50;84.10;;;;;;4965810;28;20141;-68
2022/02/06 14:38:27;;;;;;;6.97;1.33;;;11.60;84.50;;;;;;4964008;28;20098;-67
2022/02/06 14:41:26;;;;;;;12.37;1.60;;;11.70;84.50;;;;;;4968540;28;20105;-67
2022/02/06 14:44:00;;;;;;;5.88;1.10;;;11.80;84.80;;;;;;4977108;28;20096;-66
2022/02/06 14:46:27;;;;;;;;;;;11.90;84.30;;;;;;4973129;28;20047;-65
2022/02/06 14:48:55;;;;;;;4.70;1.05;;;11.90;83.80;;;;;;4961762;28;19975;-66
2022/02/06 14:51:23;;;;;;;13.45;0.93;;;11.80;83.20;;;;;;4972011;28;20734;-66
2022/02/06 14:54:00;;;;;;;3.55;1.02;;;11.80;85.40;;;;;;4967066;28;20110;-66
2022/02/06 14:56:30;;;;;;;5.50;0.77;;;11.80;84.70;;;;;;4973638;28;20038;-65
2022/02/06 14:58:58;;;;;;;4.47;0.90;;;11.70;85.20;;;;;;4977082;28;20050;-65
2022/02/06 15:01:25;;;;;;;7.88;1.60;;;11.60;86.50;;;;;;4969174;28;20054;-65
2022/02/06 15:03:51;;;;;;;4.80;0.90;;;11.40;87.90;;;;;;4965662;28;20509;-65
2022/02/06 15:06:18;;;;;;;7.25;0.85;;;11.30;88.90;;;;;;4965208;28;20456;-66
2022/02/06 15:08:45;;;;;;;4.68;0.63;;;11.20;89.60;;;;;;4965325;28;20102;-66
2022/02/06 15:11:12;;;;;;;2.33;0.52;;;11.00;90.90;;;;;;4965805;28;20046;-67
2022/02/06 15:13:39;;;;;;;5.72;0.95;;;10.90;90.80;;;;;;4966012;28;20089;-61
2022/02/06 15:16:10;;;;;;;5.07;0.90;;;11.00;91.00;;;;;;4966324;28;20099;-66
2022/02/06 15:18:46;;;;;;;6.75;1.05;;;11.00;90.90;;;;;;4966903;28;20074;-66
2022/02/06 15:21:13;;;;;;;3.97;0.70;;;11.10;91.10;;;;;;4963516;28;20062;-67
2022/02/06 15:23:40;;;;;;;8.18;1.30;;;11.00;91.00;;;;;;4966179;28;20122;-67
2022/02/06 15:26:07;;;;;;;4.97;0.98;;;11.00;91.20;;;;;;4955483;28;20081;-67
2022/02/06 15:28:34;;;;;;;3.63;0.90;;;10.90;91.00;;;;;;4964912;28;20089;-66
2022/02/06 15:31:01;;;;;;;2.30;0.95;;;10.90;91.30;;;;;;4963966;28;20409;-65
2022/02/06 15:33:28;;;;;;;8.20;3.53;;;10.90;91.60;;;;;;4966616;28;20588;-63
2022/02/06 15:35:55;;;;;;;9.63;1.95;;;10.80;91.40;;;;;;4964212;28;20047;-67
2022/02/06 15:38:22;;;;;;;5.45;0.98;;;10.80;91.60;;;;;;4964179;28;20134;-68
2022/02/06 15:40:50;;;;;;;2.03;0.60;;;10.70;91.70;;;;;;4964113;28;20096;-68
2022/02/06 15:43:17;;;;;;;5.00;0.60;;;10.60;92.00;;;;;;4945475;28;20052;-68
2022/02/06 15:45:44;;;;;;;4.50;2.28;;;10.50;92.00;;;;;;4962767;28;20090;-68
2022/02/06 15:48:11;;;;;;;6.97;0.75;;;10.50;92.00;;;;;;4963663;28;20620;-67
2022/02/06 15:50:38;;;;;;;4.18;0.60;;;10.50;92.30;;;;;;4964863;28;20071;-68
2022/02/06 15:53:04;;;;;;;11.07;1.45;;;10.50;92.60;;;;;;4966588;28;20082;-67
2022/02/06 15:55:31;;;;;;;3.35;0.88;;;10.50;92.90;;;;;;4963750;28;20078;-68
2022/02/06 15:57:58;;;;;;;6.65;1.35;;;10.50;93.10;;;;;;4966622;28;20473;-68
2022/02/06 16:00:25;;;;;;;6.18;1.17;;;10.50;93.10;;;;;;4965424;28;20097;-69